createdAt,value
2023-01-19T00:00:02.504Z,5.1
2023-01-19T00:02:03.861Z,5.1
2023-01-19T00:04:03.193Z,5.1
2023-01-19T00:06:06.561Z,5.1
2023-01-19T00:08:11.980Z,5.1
2023-01-19T00:10:02.962Z,5.1
2023-01-19T00:12:02.344Z,5.1
2023-01-19T00:14:03.493Z,5.1
2023-01-19T00:16:02.496Z,5.1
2023-01-19T00:18:02.616Z,5.1
2023-01-19T00:20:03.584Z,5.1
2023-01-19T00:22:02.495Z,5.1
2023-01-19T00:24:03.012Z,5.1
2023-01-19T00:26:02.544Z,5.1
2023-01-19T00:28:02.440Z,5.1
2023-01-19T00:30:03.256Z,5.1
2023-01-19T00:32:03.471Z,5.1
2023-01-19T00:34:03.315Z,5.1
2023-01-19T00:36:02.379Z,5.1
2023-01-19T00:38:03.407Z,5.1
2023-01-19T00:40:02.428Z,5.1
2023-01-19T00:42:12.027Z,5.0
2023-01-19T00:44:02.322Z,5.1
2023-01-19T00:46:02.459Z,5.0
2023-01-19T00:48:02.988Z,5.0
2023-01-19T00:50:03.127Z,5.0
2023-01-19T00:52:02.444Z,5.0
2023-01-19T00:54:04.542Z,4.9
2023-01-19T00:56:02.360Z,4.9
2023-01-19T00:58:02.989Z,4.9
2023-01-19T01:00:05.994Z,4.8
2023-01-19T01:02:02.625Z,4.8
2023-01-19T01:04:02.334Z,4.8
2023-01-19T01:06:03.509Z,4.8
2023-01-19T01:08:02.414Z,4.8
2023-01-19T01:10:02.505Z,4.8
2023-01-19T01:12:02.580Z,4.7
2023-01-19T01:14:02.324Z,4.7
2023-01-19T01:16:02.955Z,4.7
2023-01-19T01:18:02.625Z,4.6
2023-01-19T01:20:04.377Z,4.6
2023-01-19T01:22:02.415Z,4.6
2023-01-19T01:24:03.383Z,4.6
2023-01-19T01:26:02.436Z,4.6
2023-01-19T01:28:03.073Z,4.5
2023-01-19T01:30:02.584Z,4.4
2023-01-19T01:32:02.541Z,4.4
2023-01-19T01:34:02.994Z,4.4
2023-01-19T01:36:02.616Z,4.4
2023-01-19T01:38:03.423Z,4.4
2023-01-19T01:40:03.050Z,4.4
2023-01-19T01:42:03.161Z,4.4
2023-01-19T01:44:07.768Z,4.3
2023-01-19T01:46:03.210Z,4.3
2023-01-19T01:48:10.444Z,4.3
2023-01-19T01:50:07.240Z,4.3
2023-01-19T01:52:03.848Z,4.3
2023-01-19T01:54:10.834Z,4.3
2023-01-19T01:56:06.663Z,4.2
2023-01-19T01:58:05.310Z,4.2
2023-01-19T02:00:04.700Z,4.2
2023-01-19T02:02:16.022Z,4.1
2023-01-19T02:04:02.591Z,4.1
2023-01-19T02:06:06.848Z,4.1
2023-01-19T02:08:16.879Z,4.1
2023-01-19T02:10:11.986Z,4.0
2023-01-19T02:12:11.819Z,4.0
2023-01-19T02:14:06.065Z,3.9
2023-01-19T02:16:06.331Z,3.8
2023-01-19T02:18:02.631Z,3.9
2023-01-19T02:20:03.647Z,3.9
2023-01-19T02:22:08.268Z,3.8
2023-01-19T02:24:03.047Z,3.8
2023-01-19T02:26:03.240Z,3.8
2023-01-19T02:28:03.962Z,3.7
2023-01-19T02:30:03.392Z,3.7
2023-01-19T02:32:02.792Z,3.6
2023-01-19T02:34:04.001Z,3.6
2023-01-19T02:36:03.291Z,3.6
2023-01-19T02:38:05.198Z,3.5
2023-01-19T02:40:04.676Z,3.5
2023-01-19T02:42:06.987Z,3.6
2023-01-19T02:44:04.444Z,3.5
2023-01-19T02:46:03.275Z,3.5
2023-01-19T02:48:03.351Z,3.5
2023-01-19T02:50:02.303Z,3.5
2023-01-19T02:52:03.853Z,3.4
2023-01-19T02:54:15.912Z,3.4
2023-01-19T02:56:17.257Z,3.4
2023-01-19T02:58:11.921Z,3.4
2023-01-19T03:00:17.848Z,3.3
2023-01-19T03:02:10.825Z,3.3
2023-01-19T03:04:10.988Z,3.3
2023-01-19T03:06:09.231Z,3.3
2023-01-19T03:08:14.125Z,3.3
2023-01-19T03:10:07.262Z,3.3
2023-01-19T03:12:09.635Z,3.3
2023-01-19T03:14:09.197Z,3.3
2023-01-19T03:16:12.023Z,3.3
2023-01-19T03:18:06.465Z,3.3
2023-01-19T03:20:05.839Z,3.3
2023-01-19T03:22:06.957Z,3.2
2023-01-19T03:24:06.468Z,3.2
2023-01-19T03:26:05.007Z,3.2
2023-01-19T03:28:04.617Z,3.2
2023-01-19T03:30:09.711Z,3.2
2023-01-19T03:32:06.990Z,3.2
2023-01-19T03:34:06.551Z,3.1
2023-01-19T03:36:08.909Z,3.1
2023-01-19T03:38:08.337Z,3.1
2023-01-19T03:40:02.984Z,3.1
2023-01-19T03:42:07.639Z,3.1
2023-01-19T03:44:05.161Z,3.1
2023-01-19T03:46:04.595Z,3.1
2023-01-19T03:48:03.468Z,3.1
2023-01-19T03:50:06.512Z,3.1
2023-01-19T03:52:03.056Z,3.1
2023-01-19T03:54:02.719Z,3.1
2023-01-19T03:56:03.488Z,3.1
2023-01-19T03:58:02.466Z,3.1
2023-01-19T04:00:03.422Z,3.1
2023-01-19T04:02:02.630Z,3.1
2023-01-19T04:04:02.355Z,3.1
2023-01-19T04:06:02.901Z,3.1
2023-01-19T04:08:02.392Z,3.1
2023-01-19T04:10:02.340Z,3.1
2023-01-19T04:12:03.763Z,3.1
2023-01-19T04:14:02.357Z,3.2
2023-01-19T04:16:04.165Z,3.2
2023-01-19T04:18:03.261Z,3.2
2023-01-19T04:20:03.021Z,3.2
2023-01-19T04:22:02.428Z,3.2
2023-01-19T04:24:02.455Z,3.2
2023-01-19T04:26:04.371Z,3.2
2023-01-19T04:28:02.448Z,3.2
2023-01-19T04:30:03.926Z,3.2
2023-01-19T04:32:02.311Z,3.3
2023-01-19T04:34:02.686Z,3.2
2023-01-19T04:36:03.910Z,3.3
2023-01-19T04:38:02.342Z,3.3
2023-01-19T04:40:02.352Z,3.3
2023-01-19T04:42:02.736Z,3.3
2023-01-19T04:44:02.383Z,3.3
2023-01-19T04:46:02.590Z,3.3
2023-01-19T04:48:04.661Z,3.3
2023-01-19T04:50:02.626Z,3.3
2023-01-19T04:52:02.962Z,3.3
2023-01-19T04:54:03.711Z,3.3
2023-01-19T04:56:02.332Z,3.3
2023-01-19T04:58:02.566Z,3.3
2023-01-19T05:00:03.866Z,3.3
2023-01-19T05:02:02.972Z,3.3
2023-01-19T05:04:04.706Z,3.3
2023-01-19T05:06:02.575Z,3.3
2023-01-19T05:08:02.374Z,3.3
2023-01-19T05:10:02.535Z,3.2
2023-01-19T05:12:02.411Z,3.2
2023-01-19T05:14:02.388Z,3.2
2023-01-19T05:16:03.485Z,3.1
2023-01-19T05:18:03.394Z,3.0
2023-01-19T05:20:03.326Z,2.9
2023-01-19T05:22:03.736Z,2.9
2023-01-19T05:24:02.674Z,2.8
2023-01-19T05:26:04.709Z,2.8
2023-01-19T05:28:03.610Z,2.7
2023-01-19T05:30:04.669Z,2.7
2023-01-19T05:32:02.470Z,2.7
2023-01-19T05:34:02.441Z,2.7
2023-01-19T05:36:03.877Z,2.6
2023-01-19T05:38:02.318Z,2.6
2023-01-19T05:40:02.443Z,2.7
2023-01-19T05:42:02.820Z,2.6
2023-01-19T05:44:02.467Z,2.6
2023-01-19T05:46:04.902Z,2.6
2023-01-19T05:48:02.401Z,2.6
2023-01-19T05:50:02.381Z,2.6
2023-01-19T05:52:02.354Z,2.6
2023-01-19T05:54:03.794Z,2.7
2023-01-19T05:56:05.165Z,2.7
2023-01-19T05:58:02.904Z,2.7
2023-01-19T06:00:02.503Z,2.7
2023-01-19T06:02:02.424Z,2.7
2023-01-19T06:04:02.345Z,2.7
2023-01-19T06:06:04.395Z,2.7
2023-01-19T06:08:02.555Z,2.7
2023-01-19T06:10:02.306Z,2.7
2023-01-19T06:12:02.483Z,2.7
2023-01-19T06:14:02.444Z,2.7
2023-01-19T06:16:03.644Z,2.7
2023-01-19T06:18:02.631Z,2.7
2023-01-19T06:20:02.771Z,2.7
2023-01-19T06:22:02.893Z,2.7
2023-01-19T06:24:03.477Z,2.7
2023-01-19T06:26:03.637Z,2.7
2023-01-19T06:28:03.209Z,2.7
2023-01-19T06:30:02.909Z,2.7
2023-01-19T06:32:03.211Z,2.7
2023-01-19T06:34:03.847Z,2.6
2023-01-19T06:36:02.507Z,2.6
2023-01-19T06:38:02.364Z,2.6
2023-01-19T06:40:02.609Z,2.6
2023-01-19T06:42:02.740Z,2.6
2023-01-19T06:44:03.333Z,2.6
2023-01-19T06:46:03.096Z,2.6
2023-01-19T06:48:03.851Z,2.6
2023-01-19T06:50:03.036Z,2.5
2023-01-19T06:52:02.965Z,2.5
2023-01-19T06:54:02.715Z,2.5
2023-01-19T06:56:04.273Z,2.5
2023-01-19T06:58:03.078Z,2.5
2023-01-19T07:00:07.493Z,2.5
2023-01-19T07:02:26.306Z,2.4
2023-01-19T07:04:02.546Z,2.4
2023-01-19T07:06:03.870Z,2.4
2023-01-19T07:08:02.945Z,2.4
2023-01-19T07:10:02.949Z,2.4
2023-01-19T07:12:02.442Z,2.4
2023-01-19T07:14:03.570Z,2.3
2023-01-19T07:16:07.355Z,2.3
2023-01-19T07:18:07.218Z,2.3
2023-01-19T07:20:02.685Z,2.3
2023-01-19T07:22:03.117Z,2.3
2023-01-19T07:24:03.284Z,2.3
2023-01-19T07:26:02.368Z,2.3
2023-01-19T07:28:04.085Z,2.2
2023-01-19T07:30:04.200Z,2.2
2023-01-19T07:32:02.335Z,2.2
2023-01-19T07:34:02.343Z,2.2
2023-01-19T07:36:02.356Z,2.2
2023-01-19T07:38:02.358Z,2.2
2023-01-19T07:40:02.534Z,2.2
2023-01-19T07:42:02.555Z,2.2
2023-01-19T07:44:02.310Z,2.2
2023-01-19T07:46:06.214Z,2.1
2023-01-19T07:48:03.039Z,2.1
2023-01-19T07:50:02.995Z,2.1
2023-01-19T07:52:02.444Z,2.1
2023-01-19T07:54:02.570Z,2.1
2023-01-19T07:56:02.497Z,2.1
2023-01-19T07:58:06.186Z,2.1
2023-01-19T08:00:03.656Z,2.1
2023-01-19T08:02:02.595Z,2.2
2023-01-19T08:04:03.971Z,2.1
2023-01-19T08:06:04.717Z,2.2
2023-01-19T08:08:03.538Z,2.1
2023-01-19T08:10:02.435Z,2.2
2023-01-19T08:12:02.381Z,2.1
2023-01-19T08:14:04.524Z,2.2
2023-01-19T08:16:03.005Z,2.2
2023-01-19T08:18:05.349Z,2.2
2023-01-19T08:20:03.639Z,2.2
2023-01-19T08:22:02.521Z,2.2
2023-01-19T08:24:03.111Z,2.2
2023-01-19T08:26:02.882Z,2.2
2023-01-19T08:28:03.969Z,2.2
2023-01-19T08:30:02.569Z,2.2
2023-01-19T08:32:02.815Z,2.2
2023-01-19T08:34:02.830Z,2.2
2023-01-19T08:36:02.512Z,2.2
2023-01-19T08:38:03.802Z,2.2
2023-01-19T08:40:03.018Z,2.2
2023-01-19T08:42:02.565Z,2.2
2023-01-19T08:44:02.340Z,2.2
2023-01-19T08:46:03.355Z,2.2
2023-01-19T08:48:03.519Z,2.3
2023-01-19T08:50:02.590Z,2.3
2023-01-19T08:52:02.751Z,2.3
2023-01-19T08:54:02.631Z,2.3
2023-01-19T08:56:03.088Z,2.3
2023-01-19T08:58:04.567Z,2.4
2023-01-19T09:00:02.553Z,2.4
2023-01-19T09:02:02.597Z,2.4
2023-01-19T09:04:02.430Z,2.4
2023-01-19T09:06:06.155Z,2.4
2023-01-19T09:08:04.069Z,2.4
2023-01-19T09:10:02.454Z,2.4
2023-01-19T09:12:02.365Z,2.4
2023-01-19T09:14:05.269Z,2.4
2023-01-19T09:16:03.881Z,2.4
2023-01-19T09:18:04.222Z,2.4
2023-01-19T09:20:04.053Z,2.4
2023-01-19T09:22:03.149Z,2.3
2023-01-19T09:24:02.421Z,2.3
2023-01-19T09:26:05.505Z,2.3
2023-01-19T09:28:02.852Z,2.3
2023-01-19T09:30:04.717Z,2.3
2023-01-19T09:32:03.292Z,2.3
2023-01-19T09:34:02.384Z,2.3
2023-01-19T09:36:02.422Z,2.3
2023-01-19T09:38:02.981Z,2.3
2023-01-19T09:40:02.419Z,2.3
2023-01-19T09:42:12.463Z,2.3
2023-01-19T09:44:03.099Z,2.3
2023-01-19T09:46:05.537Z,2.3
2023-01-19T09:48:07.507Z,2.3
2023-01-19T09:50:07.699Z,2.3
2023-01-19T09:52:03.199Z,2.2
2023-01-19T09:54:11.780Z,2.2
2023-01-19T09:56:02.414Z,2.1
2023-01-19T09:58:04.831Z,2.1
2023-01-19T10:00:11.069Z,2.1
2023-01-19T10:02:15.564Z,2.1
2023-01-19T10:04:19.854Z,2.1
2023-01-19T10:06:06.184Z,2.1
2023-01-19T10:08:14.164Z,2.1
2023-01-19T10:10:11.419Z,2.1
2023-01-19T10:12:08.601Z,2.0
2023-01-19T10:14:06.039Z,2.1
2023-01-19T10:16:14.207Z,2.0
2023-01-19T10:18:14.761Z,2.0
2023-01-19T10:20:11.053Z,2.0
2023-01-19T10:22:13.620Z,2.0
2023-01-19T10:24:06.813Z,2.0
2023-01-19T10:26:08.677Z,2.0
2023-01-19T10:28:03.983Z,2.0
2023-01-19T10:30:03.845Z,2.0
2023-01-19T10:32:07.957Z,2.0
2023-01-19T10:34:02.605Z,2.0
2023-01-19T10:36:04.687Z,2.0
2023-01-19T10:38:03.521Z,1.9
2023-01-19T10:40:19.486Z,1.9
2023-01-19T10:42:06.450Z,1.9
2023-01-19T10:44:05.006Z,1.9
2023-01-19T10:46:06.641Z,1.9
2023-01-19T10:48:07.700Z,1.9
2023-01-19T10:50:21.333Z,1.9
2023-01-19T10:52:05.732Z,1.9
2023-01-19T10:54:04.375Z,1.9
2023-01-19T10:56:14.466Z,1.9
2023-01-19T10:58:02.397Z,1.8
2023-01-19T11:00:05.525Z,1.8
2023-01-19T11:02:14.837Z,1.8
2023-01-19T11:04:20.444Z,1.8
2023-01-19T11:06:20.160Z,1.8
2023-01-19T11:08:21.338Z,1.8
2023-01-19T11:10:20.698Z,1.8
2023-01-19T11:12:02.409Z,1.8
2023-01-19T11:14:09.238Z,1.8
2023-01-19T11:16:08.304Z,1.8
2023-01-19T11:18:04.052Z,1.8
2023-01-19T11:20:03.689Z,1.7
2023-01-19T11:22:16.157Z,1.7
2023-01-19T11:24:05.197Z,1.7
2023-01-19T11:26:05.506Z,1.7
2023-01-19T11:28:04.390Z,1.7
2023-01-19T11:30:14.907Z,1.6
2023-01-19T11:32:11.511Z,1.6
2023-01-19T11:34:05.165Z,1.6
2023-01-19T11:36:05.333Z,1.6
2023-01-19T11:38:16.617Z,1.6
2023-01-19T11:40:05.794Z,1.5
2023-01-19T11:42:04.463Z,1.5
2023-01-19T11:44:14.569Z,1.5
2023-01-19T11:46:03.636Z,1.5
2023-01-19T11:48:05.979Z,1.4
2023-01-19T11:50:11.770Z,1.4
2023-01-19T11:52:06.841Z,1.4
2023-01-19T11:54:07.073Z,1.4
2023-01-19T11:56:06.832Z,1.4
2023-01-19T11:58:04.180Z,1.4
2023-01-19T12:00:14.328Z,1.4
2023-01-19T12:02:11.430Z,1.4
2023-01-19T12:04:07.696Z,1.4
2023-01-19T12:06:07.490Z,1.4
2023-01-19T12:08:07.438Z,1.4
2023-01-19T12:10:15.953Z,1.3
2023-01-19T12:12:06.837Z,1.3
2023-01-19T12:14:02.955Z,1.3
2023-01-19T12:16:08.056Z,1.2
2023-01-19T12:18:05.851Z,1.2
2023-01-19T12:20:13.121Z,1.2
2023-01-19T12:22:04.400Z,1.3
2023-01-19T12:24:12.795Z,1.3
2023-01-19T12:26:22.572Z,1.3
2023-01-19T12:28:03.185Z,1.3
2023-01-19T12:30:03.074Z,1.3
2023-01-19T12:32:20.680Z,1.3
2023-01-19T12:34:22.042Z,1.3
2023-01-19T12:36:05.614Z,1.2
2023-01-19T12:38:21.386Z,1.2
2023-01-19T12:40:06.215Z,1.2
2023-01-19T12:42:14.204Z,1.2
2023-01-19T12:44:16.028Z,1.2
2023-01-19T12:46:12.512Z,1.2
2023-01-19T12:48:04.284Z,1.2
2023-01-19T12:50:13.921Z,1.2
2023-01-19T12:52:21.402Z,1.3
2023-01-19T12:54:07.522Z,1.3
2023-01-19T12:56:05.784Z,1.3
2023-01-19T12:58:05.425Z,1.4
2023-01-19T13:00:06.883Z,1.4
2023-01-19T13:02:21.564Z,1.4
2023-01-19T13:04:08.702Z,1.4
2023-01-19T13:06:02.388Z,1.4
2023-01-19T13:08:17.375Z,1.4
2023-01-19T13:10:21.386Z,1.5
2023-01-19T13:12:20.460Z,1.5
2023-01-19T13:14:21.527Z,1.5
2023-01-19T13:16:21.999Z,1.6
2023-01-19T13:18:04.241Z,1.6
2023-01-19T13:20:15.121Z,1.6
2023-01-19T13:22:21.395Z,1.6
2023-01-19T13:24:04.353Z,1.6
2023-01-19T13:26:05.843Z,1.6
2023-01-19T13:28:08.775Z,1.6
2023-01-19T13:30:03.219Z,1.6
2023-01-19T13:32:05.640Z,1.6
2023-01-19T13:34:04.186Z,1.7
2023-01-19T13:36:03.182Z,1.7
2023-01-19T13:38:03.412Z,1.7
2023-01-19T13:40:03.645Z,1.7
2023-01-19T13:42:07.217Z,1.7
2023-01-19T13:44:07.922Z,1.7
2023-01-19T13:46:03.828Z,1.7
2023-01-19T13:48:07.398Z,1.7
2023-01-19T13:50:02.760Z,1.7
2023-01-19T13:52:11.573Z,1.7
2023-01-19T13:54:02.505Z,1.7
2023-01-19T13:56:21.413Z,1.8
2023-01-19T13:58:02.384Z,1.8
2023-01-19T14:00:16.362Z,1.8
2023-01-19T14:02:13.711Z,1.8
2023-01-19T14:04:02.368Z,1.8
2023-01-19T14:06:02.917Z,1.8
2023-01-19T14:08:06.260Z,1.8
2023-01-19T14:10:02.980Z,1.9
2023-01-19T14:12:13.850Z,1.9
2023-01-19T14:14:02.898Z,1.9
2023-01-19T14:16:08.283Z,1.8
2023-01-19T14:18:21.438Z,1.9
2023-01-19T14:20:02.500Z,1.9
2023-01-19T14:22:05.267Z,1.9
2023-01-19T14:24:08.962Z,1.9
2023-01-19T14:26:02.398Z,1.9
2023-01-19T14:28:21.354Z,1.9
2023-01-19T14:30:20.638Z,1.9
2023-01-19T14:32:13.606Z,1.9
2023-01-19T14:34:02.340Z,1.9
2023-01-19T14:36:19.483Z,1.9
2023-01-19T14:38:04.347Z,1.9
2023-01-19T14:40:14.447Z,1.9
2023-01-19T14:42:05.069Z,1.9
2023-01-19T14:44:03.038Z,1.9
2023-01-19T14:46:03.123Z,1.9
2023-01-19T14:48:06.451Z,1.9
2023-01-19T14:50:08.381Z,1.9
2023-01-19T14:52:04.697Z,1.9
2023-01-19T14:54:03.819Z,1.9
2023-01-19T14:56:05.383Z,1.9
2023-01-19T14:58:02.886Z,1.9
2023-01-19T15:00:17.258Z,1.9
2023-01-19T15:02:02.513Z,1.9
2023-01-19T15:04:03.121Z,1.9
2023-01-19T15:06:04.350Z,1.9
2023-01-19T15:08:04.355Z,1.9
2023-01-19T15:10:03.894Z,1.9
2023-01-19T15:12:02.867Z,1.8
2023-01-19T15:14:02.967Z,1.8
2023-01-19T15:16:03.411Z,1.8
2023-01-19T15:18:04.815Z,1.8
2023-01-19T15:20:02.363Z,1.7
2023-01-19T15:22:02.481Z,1.7
2023-01-19T15:24:02.781Z,1.7
2023-01-19T15:26:04.958Z,1.7
2023-01-19T15:28:09.346Z,1.6
2023-01-19T15:30:02.435Z,1.6
2023-01-19T15:32:03.476Z,1.6
2023-01-19T15:34:02.497Z,1.6
2023-01-19T15:36:02.797Z,1.6
2023-01-19T15:38:02.366Z,1.6
2023-01-19T15:40:02.339Z,1.5
2023-01-19T15:42:03.200Z,1.4
2023-01-19T15:44:04.582Z,1.4
2023-01-19T15:46:03.268Z,1.4
2023-01-19T15:48:05.495Z,1.4
2023-01-19T15:50:02.320Z,1.3
2023-01-19T15:52:02.909Z,1.3
2023-01-19T15:54:02.460Z,1.3
2023-01-19T15:56:02.348Z,1.3
2023-01-19T15:58:03.137Z,1.2
2023-01-19T16:00:02.801Z,1.2
2023-01-19T16:02:03.130Z,1.2
2023-01-19T16:04:04.695Z,1.2
2023-01-19T16:06:02.331Z,1.2
2023-01-19T16:08:02.362Z,1.1
2023-01-19T16:10:05.411Z,1.1
2023-01-19T16:12:02.573Z,1.1
2023-01-19T16:14:02.638Z,1.1
2023-01-19T16:16:04.014Z,1.1
2023-01-19T16:18:02.942Z,1.1
2023-01-19T16:20:02.401Z,1.1
2023-01-19T16:22:05.206Z,1.1
2023-01-19T16:24:02.594Z,1.1
2023-01-19T16:26:07.303Z,1.1
2023-01-19T16:28:02.350Z,1.1
2023-01-19T16:30:04.614Z,1.1
2023-01-19T16:32:02.956Z,1.1
2023-01-19T16:34:03.208Z,1.1
2023-01-19T16:36:20.617Z,1.1
2023-01-19T16:38:02.387Z,1.1
2023-01-19T16:40:02.430Z,1.1
2023-01-19T16:42:03.138Z,1.2
2023-01-19T16:44:03.626Z,1.2
2023-01-19T16:46:04.152Z,1.2
2023-01-19T16:48:02.707Z,1.3
2023-01-19T16:50:02.377Z,1.3
2023-01-19T16:52:03.429Z,1.3
2023-01-19T16:54:03.197Z,1.4
2023-01-19T16:56:06.040Z,1.5
2023-01-19T16:58:02.316Z,1.6
2023-01-19T17:00:04.313Z,1.7
2023-01-19T17:02:03.173Z,1.8
2023-01-19T17:04:04.345Z,1.8
2023-01-19T17:06:02.395Z,1.9
2023-01-19T17:08:03.307Z,2.0
2023-01-19T17:10:02.968Z,2.1
2023-01-19T17:12:02.772Z,2.2
2023-01-19T17:14:04.278Z,2.2
2023-01-19T17:16:03.758Z,2.3
2023-01-19T17:18:02.520Z,2.4
2023-01-19T17:20:03.110Z,2.4
2023-01-19T17:22:02.373Z,2.5
2023-01-19T17:24:03.402Z,2.6
2023-01-19T17:26:03.894Z,2.7
2023-01-19T17:28:02.482Z,2.7
2023-01-19T17:30:02.424Z,2.7
2023-01-19T17:32:02.521Z,2.8
2023-01-19T17:34:03.006Z,2.9
2023-01-19T17:36:04.396Z,2.9
2023-01-19T17:38:02.409Z,3.0
2023-01-19T17:40:02.378Z,3.1
2023-01-19T17:42:02.348Z,3.1
2023-01-19T17:44:04.868Z,3.2
2023-01-19T17:46:02.968Z,3.2
2023-01-19T17:48:02.882Z,3.2
2023-01-19T17:50:02.354Z,3.2
2023-01-19T17:52:03.060Z,3.2
2023-01-19T17:54:03.757Z,3.2
2023-01-19T17:56:05.463Z,3.2
2023-01-19T17:58:03.822Z,3.2
2023-01-19T18:00:03.113Z,3.2
2023-01-19T18:02:02.986Z,3.2
2023-01-19T18:04:02.550Z,3.2
2023-01-19T18:06:02.997Z,3.2
2023-01-19T18:08:02.543Z,3.1
2023-01-19T18:10:02.946Z,3.1
2023-01-19T18:12:02.793Z,3.1
2023-01-19T18:14:03.039Z,3.1
2023-01-19T18:16:04.892Z,3.1
2023-01-19T18:18:02.476Z,3.1
2023-01-19T18:20:02.520Z,3.1
2023-01-19T18:22:03.083Z,3.2
2023-01-19T18:24:04.830Z,3.2
2023-01-19T18:26:04.853Z,3.3
2023-01-19T18:28:02.340Z,3.8
2023-01-19T18:30:03.089Z,4.2
2023-01-19T18:32:02.995Z,4.1
2023-01-19T18:34:03.012Z,3.8
2023-01-19T18:36:04.001Z,3.6
2023-01-19T18:38:02.387Z,3.5
2023-01-19T18:40:04.158Z,3.6
2023-01-19T18:42:02.964Z,3.6
2023-01-19T18:44:02.366Z,3.6
2023-01-19T18:46:03.274Z,3.7
2023-01-19T18:48:03.110Z,3.8
2023-01-19T18:50:02.335Z,4.0
2023-01-19T18:52:03.460Z,3.9
2023-01-19T18:54:03.248Z,3.9
2023-01-19T18:56:03.838Z,3.9
2023-01-19T18:58:03.801Z,4.1
2023-01-19T19:00:03.389Z,4.1
2023-01-19T19:02:04.696Z,4.2
2023-01-19T19:04:03.314Z,4.2
2023-01-19T19:06:04.068Z,4.1
2023-01-19T19:08:02.995Z,4.1
2023-01-19T19:10:02.371Z,4.2
2023-01-19T19:12:03.327Z,4.1
2023-01-19T19:14:03.795Z,4.1
2023-01-19T19:16:05.743Z,4.1
2023-01-19T19:18:02.926Z,3.9
2023-01-19T19:20:02.664Z,3.9
2023-01-19T19:22:02.322Z,3.9
2023-01-19T19:24:02.647Z,3.9
2023-01-19T19:26:04.385Z,3.8
2023-01-19T19:28:03.296Z,3.9
2023-01-19T19:30:02.384Z,3.9
2023-01-19T19:32:02.329Z,3.9
2023-01-19T19:34:02.329Z,3.9
2023-01-19T19:36:03.527Z,3.9
2023-01-19T19:38:02.450Z,3.9
2023-01-19T19:40:03.432Z,3.9
2023-01-19T19:42:02.407Z,3.9
2023-01-19T19:44:02.309Z,3.9
2023-01-19T19:46:04.303Z,3.9
2023-01-19T19:48:02.766Z,3.9
2023-01-19T19:50:03.331Z,3.9
2023-01-19T19:52:02.372Z,3.9
2023-01-19T19:54:02.469Z,4.0
2023-01-19T19:56:05.163Z,4.1
2023-01-19T19:58:02.347Z,4.1
2023-01-19T20:00:04.821Z,4.1
2023-01-19T20:02:02.706Z,4.2
2023-01-19T20:04:08.217Z,4.2
2023-01-19T20:06:05.149Z,4.3
2023-01-19T20:08:02.450Z,4.3
2023-01-19T20:10:02.348Z,4.4
2023-01-19T20:12:02.760Z,4.4
2023-01-19T20:14:06.220Z,4.5
2023-01-19T20:16:04.449Z,4.6
2023-01-19T20:18:03.213Z,4.6
2023-01-19T20:20:04.029Z,4.7
2023-01-19T20:22:02.337Z,4.7
2023-01-19T20:24:05.601Z,4.7
2023-01-19T20:26:04.891Z,4.7
2023-01-19T20:28:02.405Z,4.6
2023-01-19T20:30:02.621Z,4.6
2023-01-19T20:32:02.393Z,4.6
2023-01-19T20:34:05.234Z,4.6
2023-01-19T20:36:03.005Z,4.6
2023-01-19T20:38:03.002Z,4.6
2023-01-19T20:40:02.384Z,4.7
2023-01-19T20:42:02.444Z,4.7
2023-01-19T20:44:02.328Z,4.8
2023-01-19T20:46:05.359Z,4.8
2023-01-19T20:48:02.576Z,4.9
2023-01-19T20:50:03.177Z,4.9
2023-01-19T20:52:03.393Z,4.9
2023-01-19T20:54:02.482Z,4.9
2023-01-19T20:56:06.078Z,5.0
2023-01-19T20:58:03.497Z,5.0
2023-01-19T21:00:03.002Z,5.0
2023-01-19T21:02:03.139Z,4.9
2023-01-19T21:04:03.097Z,5.0
2023-01-19T21:06:02.414Z,5.0
2023-01-19T21:08:03.262Z,5.0
2023-01-19T21:10:02.610Z,4.9
2023-01-19T21:12:02.571Z,4.9
2023-01-19T21:14:03.036Z,4.9
2023-01-19T21:16:03.352Z,4.9
2023-01-19T21:18:03.011Z,4.9
2023-01-19T21:20:03.269Z,4.9
2023-01-19T21:22:03.033Z,4.9
2023-01-19T21:24:03.903Z,4.9
2023-01-19T21:26:02.460Z,4.9
2023-01-19T21:28:02.345Z,5.0
2023-01-19T21:30:02.407Z,5.0
2023-01-19T21:32:02.691Z,5.0
2023-01-19T21:34:02.377Z,5.0
2023-01-19T21:36:03.173Z,4.9
2023-01-19T21:38:02.554Z,4.9
2023-01-19T21:40:02.924Z,4.9
2023-01-19T21:42:02.368Z,4.8
2023-01-19T21:44:03.184Z,4.8
2023-01-19T21:46:09.861Z,4.8
2023-01-19T21:48:02.580Z,4.8
2023-01-19T21:50:03.076Z,4.8
2023-01-19T21:52:02.919Z,4.9
2023-01-19T21:54:04.116Z,4.8
2023-01-19T21:56:02.431Z,4.8
2023-01-19T21:58:02.327Z,4.8
2023-01-19T22:00:02.691Z,4.8
2023-01-19T22:02:02.536Z,4.8
2023-01-19T22:04:03.063Z,4.8
2023-01-19T22:06:05.401Z,4.7
2023-01-19T22:08:03.619Z,4.7
2023-01-19T22:10:03.251Z,4.7
2023-01-19T22:12:03.141Z,4.7
2023-01-19T22:14:02.374Z,4.7
2023-01-19T22:16:04.943Z,4.7
2023-01-19T22:18:02.886Z,4.7
2023-01-19T22:20:03.064Z,4.7
2023-01-19T22:22:02.397Z,4.7
2023-01-19T22:24:04.594Z,4.7
2023-01-19T22:26:03.276Z,4.7
2023-01-19T22:28:02.398Z,4.7
2023-01-19T22:30:02.578Z,4.7
2023-01-19T22:32:02.330Z,4.7
2023-01-19T22:34:03.072Z,4.7
2023-01-19T22:36:12.904Z,4.7
2023-01-19T22:38:02.718Z,4.7
2023-01-19T22:40:02.709Z,4.7
2023-01-19T22:42:02.589Z,4.7
2023-01-19T22:44:04.884Z,4.8
2023-01-19T22:46:04.097Z,4.8
2023-01-19T22:48:02.553Z,4.8
2023-01-19T22:50:02.468Z,4.8
2023-01-19T22:52:02.560Z,4.9
2023-01-19T22:54:03.939Z,4.9
2023-01-19T22:56:11.545Z,4.9
2023-01-19T22:58:02.343Z,4.9
2023-01-19T23:00:06.360Z,4.9
2023-01-19T23:02:02.499Z,4.9
2023-01-19T23:04:04.361Z,5.0
2023-01-19T23:06:05.647Z,5.0
2023-01-19T23:08:02.939Z,4.9
2023-01-19T23:10:02.354Z,4.9
2023-01-19T23:12:03.266Z,4.9
2023-01-19T23:14:03.647Z,4.9
2023-01-19T23:16:03.096Z,4.9
2023-01-19T23:18:02.427Z,4.9
2023-01-19T23:20:02.461Z,4.8
2023-01-19T23:22:02.344Z,4.8
2023-01-19T23:24:04.331Z,4.8
2023-01-19T23:26:04.243Z,4.8
2023-01-19T23:28:02.418Z,4.7
2023-01-19T23:30:03.259Z,4.7
2023-01-19T23:32:03.264Z,4.7
2023-01-19T23:34:05.468Z,4.7
2023-01-19T23:36:02.555Z,4.6
2023-01-19T23:38:04.083Z,4.6
2023-01-19T23:40:02.378Z,4.6
2023-01-19T23:42:03.222Z,4.6
2023-01-19T23:44:03.122Z,4.5
2023-01-19T23:46:05.652Z,4.4
2023-01-19T23:48:03.452Z,4.4
2023-01-19T23:50:03.939Z,4.4
2023-01-19T23:52:02.488Z,4.4
2023-01-19T23:54:03.499Z,4.3
2023-01-19T23:56:10.364Z,4.3
2023-01-19T23:58:02.415Z,4.3
